Time;durP1;ratioP1;P1;durP2;ratioP2;P2;SDS_P1;SDS_P2;PMS_P1;PMS_P2;Temp;Humidity;BMP_temperature;BMP_pressure;BME280_temperature;BME280_humidity;BME280_pressure;Samples;Min_cycle;Max_cycle;Signal;HPM_P1;HPM_P2
2023/07/20 00:00:02;;;;;;;7.30;2.55;;;18.40;84.70;;;;;;5136045;27;20491;-83
2023/07/20 00:02:28;;;;;;;8.13;3.00;;;18.30;84.70;;;;;;5136739;27;20051;-84
2023/07/20 00:04:53;;;;;;;6.18;2.75;;;18.30;84.40;;;;;;5135756;27;20019;-84
2023/07/20 00:07:19;;;;;;;6.95;3.35;;;18.30;84.60;;;;;;5120600;27;20068;-84
2023/07/20 00:09:44;;;;;;;8.13;3.20;;;18.30;84.00;;;;;;5121704;27;20038;-84
2023/07/20 00:12:13;;;;;;;6.72;3.30;;;18.30;84.30;;;;;;5121195;27;20046;-84
2023/07/20 00:14:39;;;;;;;5.90;3.00;;;18.10;84.00;;;;;;5138785;27;20027;-85
2023/07/20 00:17:05;;;;;;;6.80;3.35;;;18.10;84.50;;;;;;5139917;27;20075;-84
2023/07/20 00:19:32;;;;;;;8.38;3.53;;;18.00;84.90;;;;;;5134534;27;20032;-84
2023/07/20 00:21:57;;;;;;;7.22;3.15;;;18.00;84.90;;;;;;5131925;27;20067;-85
2023/07/20 00:24:23;;;;;;;11.63;3.47;;;18.10;85.20;;;;;;5135708;27;20027;-84
2023/07/20 00:26:49;;;;;;;8.77;3.45;;;18.00;85.20;;;;;;5131585;27;20031;-85
2023/07/20 00:29:15;;;;;;;7.85;3.22;;;17.90;85.70;;;;;;5118904;28;20088;-84
2023/07/20 00:31:40;;;;;;;11.75;3.75;;;17.90;85.70;;;;;;5133302;27;20046;-85
2023/07/20 00:34:06;;;;;;;9.88;3.75;;;17.90;85.40;;;;;;5099921;28;20034;-84
2023/07/20 00:36:32;;;;;;;7.50;3.10;;;17.90;85.30;;;;;;5101661;27;20315;-84
2023/07/20 00:38:58;;;;;;;6.80;2.88;;;17.90;83.90;;;;;;5124405;27;20107;-84
2023/07/20 00:41:23;;;;;;;8.15;2.95;;;17.90;83.50;;;;;;5136122;27;20035;-84
2023/07/20 00:43:50;;;;;;;6.18;3.20;;;17.90;84.00;;;;;;5117574;28;20055;-85
2023/07/20 00:46:16;;;;;;;10.98;3.42;;;18.00;84.20;;;;;;5116203;28;20023;-85
2023/07/20 00:48:42;;;;;;;6.85;2.97;;;18.00;84.60;;;;;;5118527;28;20026;-85
2023/07/20 00:51:09;;;;;;;6.78;3.15;;;17.90;84.80;;;;;;5098718;28;20031;-85
2023/07/20 00:53:34;;;;;;;8.13;3.45;;;17.90;84.80;;;;;;5097939;28;20443;-85
2023/07/20 00:56:00;;;;;;;6.68;3.10;;;17.90;84.30;;;;;;5115252;28;20036;-85
2023/07/20 00:58:26;;;;;;;8.48;3.55;;;17.90;83.50;;;;;;5089682;28;20023;-85
2023/07/20 01:00:51;;;;;;;6.40;3.10;;;17.90;83.20;;;;;;5102369;28;20024;-85
2023/07/20 01:03:17;;;;;;;7.28;3.38;;;17.80;82.40;;;;;;5115733;28;20481;-85
2023/07/20 01:05:52;;;;;;;7.50;3.53;;;17.80;82.10;;;;;;5111121;28;20055;-85
2023/07/20 01:08:46;;;;;;;7.10;3.13;;;17.80;81.70;;;;;;5096559;28;20123;-85
2023/07/20 01:11:39;;;;;;;6.88;3.47;;;17.80;81.90;;;;;;5114095;28;20030;-85
2023/07/20 01:14:05;;;;;;;7.45;3.10;;;17.80;82.40;;;;;;5108175;28;20031;-85
2023/07/20 01:16:30;;;;;;;8.15;3.33;;;17.80;82.60;;;;;;5100098;28;20034;-85
2023/07/20 01:18:56;;;;;;;8.60;3.65;;;17.80;82.70;;;;;;5118010;28;20020;-86
2023/07/20 01:21:31;;;;;;;8.13;3.97;;;17.70;82.70;;;;;;5115752;28;20050;-85
2023/07/20 01:24:24;;;;;;;6.97;3.40;;;17.70;81.80;;;;;;5116078;28;20039;-86
2023/07/20 01:26:49;;;;;;;7.45;3.20;;;17.70;81.50;;;;;;5117887;28;20035;-85
2023/07/20 01:29:30;;;;;;;6.75;3.38;;;17.70;81.30;;;;;;5099599;28;20354;-85
2023/07/20 01:31:57;;;;;;;7.53;3.38;;;17.70;81.20;;;;;;5126433;27;20039;-84
2023/07/20 01:34:24;;;;;;;7.65;3.40;;;17.70;81.30;;;;;;5137388;27;20031;-85
2023/07/20 01:36:52;;;;;;;6.10;3.47;;;17.60;81.70;;;;;;5117765;27;20327;-85
2023/07/20 01:39:19;;;;;;;6.30;3.33;;;17.60;81.90;;;;;;5133009;27;20023;-85
2023/07/20 01:41:47;;;;;;;10.63;3.42;;;17.70;82.00;;;;;;5133723;27;20019;-85
2023/07/20 01:44:13;;;;;;;8.68;3.53;;;17.60;82.50;;;;;;5124262;27;20118;-85
2023/07/20 01:46:39;;;;;;;7.50;3.67;;;17.50;83.20;;;;;;5125603;27;20385;-85
2023/07/20 01:49:04;;;;;;;8.13;3.60;;;17.60;83.10;;;;;;5125829;27;20346;-84
2023/07/20 01:51:30;;;;;;;7.80;3.85;;;17.60;83.20;;;;;;5136210;27;20031;-83
2023/07/20 01:53:55;;;;;;;9.98;3.70;;;17.40;83.30;;;;;;5111552;28;20297;-83
2023/07/20 01:56:21;;;;;;;9.05;3.50;;;17.40;83.40;;;;;;5135619;27;20323;-83
2023/07/20 01:58:47;;;;;;;8.02;3.85;;;17.40;83.70;;;;;;5135639;27;20019;-83
2023/07/20 02:01:12;;;;;;;6.97;3.42;;;17.30;84.00;;;;;;5137811;27;20030;-85
2023/07/20 02:03:38;;;;;;;7.00;3.70;;;17.20;83.90;;;;;;5128521;27;20046;-85
2023/07/20 02:06:03;;;;;;;7.30;3.70;;;17.20;84.30;;;;;;5112067;27;20100;-85
2023/07/20 02:08:29;;;;;;;9.07;3.80;;;17.10;84.20;;;;;;5122564;27;20042;-85
2023/07/20 02:10:54;;;;;;;8.23;3.10;;;17.10;84.80;;;;;;5137697;27;20031;-85
2023/07/20 02:13:20;;;;;;;7.50;3.58;;;17.00;84.90;;;;;;5130112;27;20023;-84
2023/07/20 02:15:47;;;;;;;7.07;3.70;;;16.90;85.40;;;;;;5105804;27;20028;-84
2023/07/20 02:18:13;;;;;;;9.43;3.35;;;16.90;85.40;;;;;;5129597;27;20019;-84
2023/07/20 02:20:40;;;;;;;8.68;3.88;;;16.80;85.70;;;;;;5121341;27;20034;-85
2023/07/20 02:23:05;;;;;;;9.63;3.58;;;16.80;85.70;;;;;;5116963;28;20140;-85
2023/07/20 02:25:31;;;;;;;10.02;3.95;;;16.70;85.80;;;;;;5117079;28;20044;-85
2023/07/20 02:28:00;;;;;;;6.60;3.53;;;16.80;85.50;;;;;;5116788;28;20062;-84
2023/07/20 02:30:25;;;;;;;6.72;3.25;;;16.80;85.40;;;;;;5131290;27;20113;-85
2023/07/20 02:32:51;;;;;;;7.97;3.60;;;16.80;85.50;;;;;;5136858;27;20039;-85
2023/07/20 02:35:17;;;;;;;9.23;3.88;;;16.70;85.60;;;;;;5136049;27;20026;-84
2023/07/20 02:37:42;;;;;;;8.68;3.63;;;16.70;85.60;;;;;;5130320;27;20024;-85
2023/07/20 02:40:08;;;;;;;9.05;3.90;;;16.60;85.70;;;;;;5117493;27;20419;-85
2023/07/20 02:42:35;;;;;;;8.23;3.70;;;16.60;86.40;;;;;;5137193;27;20019;-85
2023/07/20 02:45:01;;;;;;;10.63;3.80;;;16.50;86.50;;;;;;5137044;27;20536;-85
2023/07/20 02:47:27;;;;;;;7.68;3.92;;;16.40;87.00;;;;;;5136311;27;20023;-85
2023/07/20 02:49:52;;;;;;;9.02;3.88;;;16.20;87.50;;;;;;5117231;27;20023;-85
2023/07/20 02:52:18;;;;;;;7.90;3.50;;;16.10;88.00;;;;;;5135143;27;20027;-85
2023/07/20 02:54:43;;;;;;;7.63;4.20;;;16.10;88.20;;;;;;5106160;28;20042;-85
2023/07/20 02:57:09;;;;;;;9.60;3.72;;;16.10;88.50;;;;;;5116565;27;20073;-85
2023/07/20 02:59:34;;;;;;;10.82;4.25;;;16.00;88.50;;;;;;5128404;27;20431;-85
2023/07/20 03:02:00;;;;;;;10.18;4.00;;;15.90;89.10;;;;;;5124914;27;20408;-85
2023/07/20 03:04:27;;;;;;;7.68;4.10;;;15.80;89.50;;;;;;5136902;27;20023;-85
2023/07/20 03:06:52;;;;;;;6.53;4.10;;;15.70;89.90;;;;;;5135844;27;20053;-85
2023/07/20 03:09:18;;;;;;;8.07;3.80;;;15.60;90.30;;;;;;5131553;27;20058;-85
2023/07/20 03:11:43;;;;;;;6.75;4.00;;;15.60;90.70;;;;;;5127054;27;20047;-85
2023/07/20 03:14:10;;;;;;;9.18;3.65;;;15.60;90.80;;;;;;5129540;27;20102;-86
2023/07/20 03:16:36;;;;;;;6.85;3.70;;;15.50;90.90;;;;;;5112002;28;20365;-86
2023/07/20 03:19:02;;;;;;;8.02;3.90;;;15.50;91.30;;;;;;5118995;27;20027;-85
2023/07/20 03:21:28;;;;;;;9.55;4.03;;;15.50;91.40;;;;;;5124613;27;20027;-86
2023/07/20 03:23:54;;;;;;;7.85;4.03;;;15.40;91.90;;;;;;5115801;28;20106;-85
2023/07/20 03:26:20;;;;;;;6.80;3.67;;;15.40;92.00;;;;;;5125385;28;20406;-86
2023/07/20 03:28:45;;;;;;;7.65;3.97;;;15.30;92.30;;;;;;5122769;27;20023;-86
2023/07/20 03:31:20;;;;;;;6.18;3.22;;;15.20;92.00;;;;;;5111743;27;20139;-85
2023/07/20 03:33:46;;;;;;;7.95;4.00;;;15.20;92.50;;;;;;5140208;27;20228;-85
2023/07/20 03:36:12;;;;;;;8.10;3.58;;;15.10;93.30;;;;;;5134489;27;20424;-85
2023/07/20 03:38:37;;;;;;;9.60;4.22;;;15.00;93.60;;;;;;5131216;27;20038;-86
2023/07/20 03:41:03;;;;;;;9.18;4.22;;;14.80;94.30;;;;;;5131658;27;20660;-85
2023/07/20 03:43:28;;;;;;;7.65;3.88;;;14.80;94.60;;;;;;5127786;27;20026;-86
2023/07/20 03:45:54;;;;;;;8.15;3.67;;;14.80;94.90;;;;;;5129515;27;20027;-85
2023/07/20 03:48:22;;;;;;;6.45;3.40;;;14.90;95.00;;;;;;5120399;27;20035;-86
2023/07/20 03:50:53;;;;;;;7.63;3.88;;;14.90;94.70;;;;;;5124476;27;20019;-85
2023/07/20 03:53:20;;;;;;;8.88;3.58;;;15.00;94.00;;;;;;5113248;27;20114;-87
2023/07/20 03:55:46;;;;;;;8.13;4.38;;;15.00;93.80;;;;;;5132324;27;20211;-86
2023/07/20 03:58:13;;;;;;;9.40;4.10;;;15.10;94.40;;;;;;5108236;28;20027;-85
2023/07/20 04:00:39;;;;;;;9.18;4.15;;;15.10;94.60;;;;;;5139131;27;20027;-85
2023/07/20 04:03:05;;;;;;;7.53;3.63;;;15.10;94.80;;;;;;5131247;27;20637;-86
2023/07/20 04:05:31;;;;;;;8.13;3.53;;;15.00;94.60;;;;;;5129077;27;20478;-86
2023/07/20 04:07:56;;;;;;;8.95;4.13;;;15.00;94.70;;;;;;5126363;27;20059;-87
2023/07/20 04:10:22;;;;;;;6.55;4.00;;;15.00;94.60;;;;;;5131752;27;20019;-86
2023/07/20 04:12:47;;;;;;;7.18;3.95;;;15.00;94.80;;;;;;5138520;27;20084;-86
2023/07/20 04:15:14;;;;;;;7.38;3.47;;;15.10;94.50;;;;;;5128747;27;20027;-87
2023/07/20 04:17:40;;;;;;;8.25;3.60;;;15.10;94.70;;;;;;5129312;27;20020;-86
2023/07/20 04:20:07;;;;;;;6.53;3.53;;;15.20;94.70;;;;;;5131353;27;20023;-86
2023/07/20 04:22:35;;;;;;;10.65;3.72;;;15.30;95.20;;;;;;5138200;27;20102;-86
2023/07/20 04:25:01;;;;;;;6.75;3.65;;;15.40;95.10;;;;;;5123419;27;20080;-86
2023/07/20 04:27:29;;;;;;;7.78;4.15;;;15.40;95.10;;;;;;5134596;27;20031;-86
2023/07/20 04:29:55;;;;;;;6.65;3.63;;;15.40;95.20;;;;;;5132520;27;20031;-86
2023/07/20 04:32:21;;;;;;;8.73;3.72;;;15.40;95.10;;;;;;5135696;27;20031;-86
2023/07/20 04:34:46;;;;;;;6.93;4.03;;;15.40;94.90;;;;;;5120171;27;20051;-87
2023/07/20 04:37:12;;;;;;;7.82;3.58;;;15.40;95.10;;;;;;5133583;27;20032;-86
2023/07/20 04:39:37;;;;;;;8.13;3.53;;;15.30;94.70;;;;;;5113745;27;20046;-86
2023/07/20 04:42:03;;;;;;;8.07;3.75;;;15.40;94.90;;;;;;5134548;27;20031;-87
2023/07/20 04:44:29;;;;;;;9.77;3.80;;;15.50;95.00;;;;;;5133460;27;20547;-85
2023/07/20 04:46:54;;;;;;;8.52;3.38;;;15.60;94.90;;;;;;5119694;27;20061;-85
2023/07/20 04:49:20;;;;;;;6.80;3.30;;;15.60;95.00;;;;;;5123408;27;20034;-85
2023/07/20 04:51:45;;;;;;;11.27;3.55;;;15.60;94.70;;;;;;5128588;27;20054;-85
2023/07/20 04:54:11;;;;;;;7.13;4.00;;;15.60;94.30;;;;;;5137396;27;20141;-86
2023/07/20 04:56:37;;;;;;;7.63;3.85;;;15.70;94.60;;;;;;5110339;28;20031;-87
2023/07/20 04:59:02;;;;;;;7.28;3.90;;;15.80;94.80;;;;;;5136473;27;20023;-87
2023/07/20 05:01:28;;;;;;;6.82;3.30;;;16.00;95.10;;;;;;5137150;27;20083;-88
2023/07/20 05:03:53;;;;;;;9.50;3.58;;;16.20;93.90;;;;;;5137353;27;20022;-87
2023/07/20 05:06:19;;;;;;;8.27;4.00;;;16.30;93.80;;;;;;5129509;27;20157;-88
2023/07/20 05:08:45;;;;;;;7.10;3.55;;;16.40;94.00;;;;;;5135533;27;20023;-88
2023/07/20 05:11:11;;;;;;;7.68;3.35;;;16.50;93.70;;;;;;5102973;27;20039;-88
2023/07/20 05:13:37;;;;;;;6.05;3.25;;;16.60;93.20;;;;;;5125555;27;20028;-88
2023/07/20 05:16:03;;;;;;;5.82;3.25;;;16.70;92.60;;;;;;5131222;27;20076;-88
2023/07/20 05:18:28;;;;;;;8.02;3.40;;;16.90;92.10;;;;;;5110652;27;20319;-88
2023/07/20 05:20:55;;;;;;;7.43;3.63;;;17.10;91.90;;;;;;5110509;27;20033;-88
2023/07/20 05:23:21;;;;;;;7.05;3.00;;;17.40;90.20;;;;;;5138005;27;20369;-88
2023/07/20 05:25:53;;;;;;;6.68;3.33;;;17.60;90.80;;;;;;5125337;27;20062;-88
2023/07/20 05:28:19;;;;;;;8.90;4.05;;;17.80;90.70;;;;;;5120338;27;20032;-89
2023/07/20 05:30:44;;;;;;;8.48;3.30;;;17.80;90.90;;;;;;5113424;28;20030;-88
2023/07/20 05:33:10;;;;;;;7.97;3.22;;;18.00;89.00;;;;;;5133714;27;20039;-88
2023/07/20 05:35:36;;;;;;;7.15;3.40;;;18.20;89.50;;;;;;5132888;27;20024;-88
2023/07/20 05:38:04;;;;;;;6.60;3.70;;;18.40;89.40;;;;;;5118305;27;20028;-88
2023/07/20 05:40:29;;;;;;;5.97;2.90;;;18.50;87.70;;;;;;5136414;27;20023;-86
2023/07/20 05:42:56;;;;;;;6.22;2.97;;;18.60;83.70;;;;;;5133293;27;20031;-89
2023/07/20 05:45:22;;;;;;;6.93;3.30;;;18.80;85.30;;;;;;5108287;28;20050;-89
2023/07/20 05:47:48;;;;;;;6.35;2.90;;;19.00;83.90;;;;;;5130242;27;20019;-88
2023/07/20 05:50:14;;;;;;;5.47;2.92;;;19.10;81.30;;;;;;5129489;27;20039;-87
2023/07/20 05:52:40;;;;;;;6.50;3.20;;;19.10;82.40;;;;;;5137682;27;20031;-88
2023/07/20 05:55:06;;;;;;;8.65;3.25;;;19.00;82.00;;;;;;5137961;27;20023;-89
2023/07/20 05:57:32;;;;;;;6.05;3.08;;;18.70;82.70;;;;;;5111821;28;20110;-89
2023/07/20 05:59:58;;;;;;;7.93;3.00;;;18.70;83.20;;;;;;5131594;27;20521;-89
2023/07/20 06:02:23;;;;;;;9.20;3.33;;;18.90;83.20;;;;;;5132803;27;20476;-88
2023/07/20 06:04:49;;;;;;;6.70;3.08;;;18.90;82.00;;;;;;5129956;27;20028;-89
2023/07/20 06:07:15;;;;;;;6.90;2.97;;;18.90;81.90;;;;;;5135966;27;20085;-89
2023/07/20 06:09:40;;;;;;;8.52;3.22;;;19.10;81.80;;;;;;5117986;27;20316;-88
2023/07/20 06:12:07;;;;;;;5.78;2.85;;;19.10;81.50;;;;;;5136089;27;20038;-89
2023/07/20 06:14:33;;;;;;;5.32;2.90;;;19.00;81.60;;;;;;5137345;27;20080;-89
2023/07/20 06:16:58;;;;;;;6.20;3.28;;;19.00;81.80;;;;;;5137842;27;20102;-89
2023/07/20 06:19:24;;;;;;;6.78;3.33;;;18.90;82.50;;;;;;5119684;27;20110;-89
2023/07/20 06:21:50;;;;;;;7.28;2.72;;;19.10;81.50;;;;;;5130327;27;20020;-88
2023/07/20 06:24:16;;;;;;;5.70;2.97;;;19.10;82.00;;;;;;5112865;27;20411;-89
2023/07/20 06:26:42;;;;;;;7.18;2.95;;;19.40;81.40;;;;;;5130326;27;20061;-89
2023/07/20 06:29:11;;;;;;;6.85;3.20;;;19.60;81.50;;;;;;5112820;27;20423;-89
2023/07/20 06:31:37;;;;;;;6.78;2.90;;;19.50;82.30;;;;;;5137083;27;20046;-89
2023/07/20 06:34:03;;;;;;;6.10;3.35;;;19.80;81.90;;;;;;5118790;27;20260;-89
2023/07/20 06:36:29;;;;;;;7.00;2.88;;;20.10;81.20;;;;;;5133779;27;20023;-89
2023/07/20 06:38:55;;;;;;;7.85;3.70;;;20.10;79.40;;;;;;5130175;27;20058;-88
2023/07/20 06:41:22;;;;;;;8.00;2.80;;;20.10;79.50;;;;;;5132555;27;20157;-88
2023/07/20 06:43:47;;;;;;;6.22;2.70;;;20.50;79.30;;;;;;5120082;27;20034;-89
2023/07/20 06:46:13;;;;;;;5.35;2.65;;;20.50;78.70;;;;;;5136907;27;20332;-89
2023/07/20 06:48:39;;;;;;;9.68;3.10;;;20.60;78.20;;;;;;5134289;27;20106;-89
2023/07/20 06:51:05;;;;;;;9.70;2.83;;;20.70;78.20;;;;;;5134838;27;20034;-90
2023/07/20 06:53:30;;;;;;;7.95;2.90;;;20.80;78.70;;;;;;5118162;27;20028;-91
2023/07/20 06:55:59;;;;;;;6.78;3.20;;;20.80;77.80;;;;;;5135675;27;20102;-89
2023/07/20 06:58:25;;;;;;;8.75;2.80;;;20.90;77.30;;;;;;5131922;27;20442;-88
2023/07/20 07:00:51;;;;;;;5.50;2.70;;;20.90;77.30;;;;;;5135337;27;20077;-89
2023/07/20 07:03:17;;;;;;;8.88;3.20;;;21.00;76.70;;;;;;5136859;27;20023;-89
2023/07/20 07:05:45;;;;;;;8.23;3.08;;;21.10;77.20;;;;;;5135805;27;20047;-90
2023/07/20 07:08:10;;;;;;;9.65;2.92;;;21.50;75.80;;;;;;5133062;27;20039;-90
2023/07/20 07:10:36;;;;;;;6.85;2.80;;;21.80;74.90;;;;;;5135947;27;20096;-89
2023/07/20 07:13:02;;;;;;;11.40;3.13;;;21.30;76.00;;;;;;5117833;27;20320;-90
2023/07/20 07:15:28;;;;;;;5.78;3.22;;;21.50;75.80;;;;;;5136830;27;20122;-90
2023/07/20 07:17:54;;;;;;;6.55;3.15;;;21.50;75.60;;;;;;5117730;27;20471;-88
2023/07/20 07:20:20;;;;;;;8.00;3.28;;;20.90;76.70;;;;;;5103142;27;20027;-90
2023/07/20 07:22:46;;;;;;;6.45;2.88;;;21.10;77.60;;;;;;5136770;27;20050;-90
2023/07/20 07:25:12;;;;;;;7.97;3.15;;;21.50;76.30;;;;;;5136056;27;20378;-91
2023/07/20 07:27:38;;;;;;;5.63;2.90;;;21.80;75.40;;;;;;5136644;27;20098;-90
2023/07/20 07:30:04;;;;;;;5.93;3.10;;;21.70;76.10;;;;;;5122903;27;20415;-90
2023/07/20 07:32:30;;;;;;;8.65;3.28;;;21.70;74.90;;;;;;5135536;27;20039;-91
2023/07/20 07:34:58;;;;;;;7.95;3.17;;;21.60;75.50;;;;;;5127555;27;20040;-90
2023/07/20 07:37:23;;;;;;;8.35;2.90;;;21.60;76.00;;;;;;5139590;27;20070;-89
2023/07/20 07:39:51;;;;;;;7.40;3.33;;;21.40;76.30;;;;;;5136101;27;20015;-90
2023/07/20 07:42:18;;;;;;;7.57;3.05;;;21.60;76.40;;;;;;5139897;27;20030;-90
2023/07/20 07:44:52;;;;;;;8.98;3.55;;;21.90;75.60;;;;;;5140069;27;20061;-90
2023/07/20 07:47:18;;;;;;;5.97;2.97;;;21.90;74.60;;;;;;5122173;27;20087;-90
2023/07/20 07:49:51;;;;;;;9.80;3.30;;;22.20;75.30;;;;;;5133825;27;20023;-91
2023/07/20 07:52:24;;;;;;;5.57;2.83;;;23.00;73.50;;;;;;5138689;27;20420;-91
2023/07/20 07:54:55;;;;;;;10.63;3.03;;;23.40;71.60;;;;;;5140166;27;20094;-91
2023/07/20 07:57:34;;;;;;;;;;;;;;;;;;;;;
2023/07/20 08:00:10;;;;;;;8.20;3.20;;;23.10;72.00;;;;;;5126379;27;20024;-91
2023/07/20 08:06:31;;;;;;;;;;;23.40;72.10;;;;;;4985845;28;20039;-93
2023/07/20 08:08:57;;;;;;;7.15;3.13;;;23.20;71.40;;;;;;5034859;28;19909;-73
2023/07/20 08:11:24;;;;;;;7.45;3.00;;;23.30;71.70;;;;;;5136465;27;20463;-78
2023/07/20 08:13:49;;;;;;;12.82;2.85;;;23.60;72.10;;;;;;5138858;27;20024;-83
2023/07/20 08:16:15;;;;;;;6.03;2.85;;;23.60;69.80;;;;;;5140067;27;20019;-84
2023/07/20 08:18:41;;;;;;;9.98;3.35;;;23.50;72.00;;;;;;5134183;27;20059;-84
2023/07/20 08:21:06;;;;;;;7.15;2.80;;;23.50;69.80;;;;;;5131956;27;20028;-84
2023/07/20 08:23:35;;;;;;;4.68;2.90;;;23.40;69.50;;;;;;5139937;27;20027;-87
2023/07/20 08:26:01;;;;;;;5.80;3.00;;;23.80;69.20;;;;;;5139709;27;20031;-84
2023/07/20 08:28:27;;;;;;;5.85;2.97;;;23.30;69.20;;;;;;5135850;27;20026;-85
2023/07/20 08:30:52;;;;;;;6.43;2.70;;;23.00;71.10;;;;;;5139965;27;20023;-83
2023/07/20 08:33:19;;;;;;;5.68;2.85;;;22.50;71.10;;;;;;5128293;27;20038;-84
2023/07/20 08:35:46;;;;;;;7.68;3.30;;;21.90;72.20;;;;;;5103626;27;20028;-84
2023/07/20 08:38:12;;;;;;;6.78;3.30;;;21.50;72.90;;;;;;5135301;27;20020;-85
2023/07/20 08:40:42;;;;;;;5.22;2.58;;;21.10;74.70;;;;;;5125821;27;20016;-85
2023/07/20 08:43:12;;;;;;;5.97;3.15;;;21.30;74.40;;;;;;5124046;27;20028;-84
2023/07/20 08:45:39;;;;;;;9.88;3.28;;;21.80;75.00;;;;;;5138163;27;20488;-85
2023/07/20 08:48:06;;;;;;;8.18;2.95;;;22.10;73.80;;;;;;5135212;27;20447;-85
2023/07/20 08:50:32;;;;;;;8.75;2.70;;;22.20;72.80;;;;;;5111999;27;20035;-85
2023/07/20 08:52:59;;;;;;;8.98;3.17;;;22.50;72.20;;;;;;5139230;27;20083;-86
2023/07/20 08:55:29;;;;;;;7.90;2.90;;;22.60;73.00;;;;;;5137321;27;20110;-85
2023/07/20 08:57:59;;;;;;;7.57;3.10;;;23.00;72.80;;;;;;5113321;27;20019;-85
2023/07/20 09:00:26;;;;;;;7.63;3.10;;;23.80;70.20;;;;;;5105485;28;20500;-85
2023/07/20 09:02:56;;;;;;;6.05;2.58;;;24.20;69.10;;;;;;5125743;27;20035;-86
2023/07/20 09:05:23;;;;;;;10.15;2.78;;;23.60;68.90;;;;;;5131189;27;20020;-85
2023/07/20 09:07:49;;;;;;;8.15;3.08;;;23.90;68.70;;;;;;5135019;27;20098;-85
2023/07/20 09:10:15;;;;;;;7.40;2.92;;;24.30;68.50;;;;;;5127549;27;20151;-85
2023/07/20 09:12:44;;;;;;;6.30;2.22;;;24.50;66.90;;;;;;5130162;27;20023;-85
2023/07/20 09:15:11;;;;;;;8.23;2.70;;;24.80;66.30;;;;;;5136396;27;20352;-86
2023/07/20 09:17:40;;;;;;;6.25;2.40;;;24.50;66.30;;;;;;5128946;27;20103;-85
2023/07/20 09:20:08;;;;;;;7.63;2.40;;;24.90;65.40;;;;;;5123478;27;20031;-85
2023/07/20 09:22:33;;;;;;;4.40;2.25;;;24.90;64.40;;;;;;5109815;27;20055;-84
2023/07/20 09:24:59;;;;;;;5.28;2.22;;;25.10;64.80;;;;;;5138132;27;20112;-85
2023/07/20 09:27:38;;;;;;;5.38;2.63;;;25.20;64.90;;;;;;5129085;27;20027;-86
2023/07/20 09:30:07;;;;;;;5.18;2.25;;;24.90;66.30;;;;;;5125204;27;20038;-84
2023/07/20 09:32:45;;;;;;;5.07;2.50;;;24.60;66.90;;;;;;5121223;27;20043;-85
2023/07/20 09:35:18;;;;;;;5.55;2.50;;;25.00;64.80;;;;;;5098138;28;20028;-84
2023/07/20 09:38:01;;;;;;;6.32;2.60;;;24.90;65.80;;;;;;5116488;28;20023;-85
2023/07/20 09:40:28;;;;;;;10.07;2.65;;;24.10;67.10;;;;;;5080069;28;20031;-85
2023/07/20 09:43:00;;;;;;;10.07;2.70;;;24.30;67.10;;;;;;5111541;28;20020;-85
2023/07/20 09:45:39;;;;;;;5.80;2.38;;;25.20;66.60;;;;;;5115495;28;20031;-84
2023/07/20 09:48:08;;;;;;;8.68;2.75;;;26.00;64.50;;;;;;5117341;28;20030;-85
2023/07/20 09:50:44;;;;;;;6.18;2.50;;;26.00;63.00;;;;;;5114414;28;20432;-84
2023/07/20 09:53:14;;;;;;;4.65;2.15;;;25.50;63.80;;;;;;5115440;28;20027;-85
2023/07/20 09:55:44;;;;;;;5.45;1.95;;;24.80;63.00;;;;;;5114797;28;20019;-85
2023/07/20 09:58:10;;;;;;;5.10;1.90;;;24.00;63.10;;;;;;5115861;28;20039;-86
2023/07/20 10:00:38;;;;;;;6.32;2.22;;;23.40;63.40;;;;;;5097477;28;20024;-84
2023/07/20 10:03:05;;;;;;;7.63;2.00;;;23.50;64.40;;;;;;5115077;28;20094;-85
2023/07/20 10:05:35;;;;;;;5.10;1.88;;;23.70;63.80;;;;;;5113150;28;20028;-85
2023/07/20 10:08:04;;;;;;;5.00;2.10;;;24.00;64.00;;;;;;5098808;28;20034;-85
2023/07/20 10:10:31;;;;;;;5.25;1.90;;;24.10;63.20;;;;;;5116388;28;20020;-84
2023/07/20 10:12:58;;;;;;;7.07;2.10;;;25.50;61.50;;;;;;5116756;28;20035;-84
2023/07/20 10:15:36;;;;;;;4.93;1.83;;;26.10;59.90;;;;;;5098310;28;20316;-85
2023/07/20 10:18:12;;;;;;;4.80;1.92;;;26.50;58.50;;;;;;5114638;28;20412;-84
2023/07/20 10:20:43;;;;;;;6.32;1.92;;;26.70;60.10;;;;;;5115043;28;20047;-85
2023/07/20 10:23:10;;;;;;;4.95;1.95;;;26.80;61.50;;;;;;5097805;28;20438;-84
2023/07/20 10:25:41;;;;;;;4.45;2.10;;;27.10;59.80;;;;;;5115946;28;20033;-84
2023/07/20 10:28:06;;;;;;;6.68;2.08;;;26.30;59.20;;;;;;5117061;28;20023;-84
2023/07/20 10:30:34;;;;;;;6.65;2.08;;;25.80;60.50;;;;;;5115807;28;20024;-84
2023/07/20 10:33:02;;;;;;;5.20;2.25;;;24.90;62.40;;;;;;5112905;28;20096;-84
2023/07/20 10:35:28;;;;;;;4.63;1.92;;;24.20;63.70;;;;;;5115607;28;20841;-83
2023/07/20 10:37:59;;;;;;;4.43;2.10;;;23.50;64.20;;;;;;5116724;28;20063;-84
2023/07/20 10:40:26;;;;;;;5.75;2.20;;;23.10;65.40;;;;;;5110678;28;20020;-83
2023/07/20 10:43:03;;;;;;;11.82;2.75;;;23.20;65.40;;;;;;5096385;28;20017;-84
2023/07/20 10:45:35;;;;;;;5.72;1.90;;;23.40;65.90;;;;;;5095259;28;20093;-85
2023/07/20 10:48:20;;;;;;;4.85;2.10;;;24.50;63.80;;;;;;5096706;28;20417;-85
2023/07/20 10:51:16;;;;;;;6.18;2.30;;;25.20;62.40;;;;;;5094828;28;20047;-84
2023/07/20 10:53:42;;;;;;;6.88;2.10;;;26.10;59.80;;;;;;5096148;28;20050;-85
2023/07/20 10:56:18;;;;;;;8.43;2.35;;;25.10;59.80;;;;;;5112118;28;20049;-85
2023/07/20 10:58:44;;;;;;;5.70;2.20;;;25.10;61.50;;;;;;5104405;28;20030;-84
2023/07/20 11:01:14;;;;;;;4.15;1.95;;;25.20;60.30;;;;;;5114907;28;20111;-84
2023/07/20 11:03:40;;;;;;;4.20;2.00;;;24.80;60.30;;;;;;5115413;28;20416;-84
2023/07/20 11:06:24;;;;;;;5.80;1.77;;;24.70;60.20;;;;;;5115753;28;20092;-84
2023/07/20 11:08:56;;;;;;;3.70;1.92;;;25.80;60.20;;;;;;5105754;28;20032;-85
2023/07/20 11:11:33;;;;;;;5.45;2.08;;;26.40;59.20;;;;;;5116568;28;20372;-84
2023/07/20 11:14:07;;;;;;;6.38;2.05;;;26.60;58.00;;;;;;5116119;28;20371;-85
2023/07/20 11:16:34;;;;;;;6.45;2.00;;;26.80;57.90;;;;;;5116406;28;20020;-85
2023/07/20 11:19:01;;;;;;;4.80;2.00;;;26.20;57.90;;;;;;5111716;28;20020;-85
2023/07/20 11:21:27;;;;;;;4.78;1.90;;;26.00;59.40;;;;;;5115171;28;20077;-85
2023/07/20 11:23:56;;;;;;;5.35;2.13;;;26.10;58.60;;;;;;5116175;28;20032;-85
2023/07/20 11:26:21;;;;;;;5.70;2.00;;;25.30;59.70;;;;;;5115097;28;20054;-86
2023/07/20 11:28:51;;;;;;;7.45;1.85;;;25.30;59.90;;;;;;5116297;28;20063;-86
2023/07/20 11:31:18;;;;;;;4.30;1.73;;;25.60;59.70;;;;;;5119341;28;20449;-85
2023/07/20 11:33:44;;;;;;;4.35;2.00;;;26.00;58.20;;;;;;5136813;28;20028;-84
2023/07/20 11:36:10;;;;;;;6.47;1.83;;;25.80;59.00;;;;;;5132251;28;20045;-85
2023/07/20 11:38:35;;;;;;;6.97;1.70;;;26.30;57.80;;;;;;5136686;28;20422;-84
2023/07/20 11:41:03;;;;;;;4.32;2.10;;;26.90;58.10;;;;;;5136584;28;20133;-85
2023/07/20 11:43:30;;;;;;;5.40;1.92;;;27.40;57.60;;;;;;5136565;28;20072;-85
2023/07/20 11:45:55;;;;;;;4.28;1.80;;;26.70;56.60;;;;;;5127019;28;20034;-85
2023/07/20 11:48:21;;;;;;;4.85;1.95;;;25.70;57.20;;;;;;5098042;28;20027;-85
2023/07/20 11:50:47;;;;;;;6.25;2.08;;;25.50;59.00;;;;;;5132009;28;20073;-84
2023/07/20 11:53:14;;;;;;;4.05;1.90;;;25.90;58.40;;;;;;5097962;28;20035;-85
2023/07/20 11:55:42;;;;;;;6.25;2.05;;;25.70;58.60;;;;;;5121590;28;20019;-85
2023/07/20 11:58:09;;;;;;;4.97;2.03;;;25.60;61.00;;;;;;5136520;28;20049;-85
2023/07/20 12:00:38;;;;;;;5.45;1.60;;;26.00;58.00;;;;;;5136555;28;20022;-85
2023/07/20 12:03:10;;;;;;;4.70;2.13;;;26.50;57.70;;;;;;5136398;28;20033;-85
2023/07/20 12:05:38;;;;;;;4.10;1.60;;;27.40;57.10;;;;;;5134622;27;20087;-85
2023/07/20 12:08:03;;;;;;;6.22;1.90;;;28.10;56.00;;;;;;5130815;28;20039;-85
2023/07/20 12:10:29;;;;;;;4.47;1.75;;;28.40;54.80;;;;;;5132546;28;20043;-85
2023/07/20 12:13:03;;;;;;;4.88;1.73;;;28.20;55.30;;;;;;5136159;28;20027;-86
2023/07/20 12:15:29;;;;;;;4.80;1.98;;;27.90;55.20;;;;;;5117486;28;20015;-84
2023/07/20 12:18:02;;;;;;;4.18;1.85;;;27.20;56.30;;;;;;5136529;28;20046;-84
2023/07/20 12:20:34;;;;;;;5.82;2.10;;;27.20;57.10;;;;;;5118873;27;20038;-84
2023/07/20 12:23:02;;;;;;;4.30;1.70;;;27.10;56.30;;;;;;5139613;27;20523;-84
2023/07/20 12:25:36;;;;;;;5.18;1.70;;;27.60;55.60;;;;;;5120789;27;20020;-85
2023/07/20 12:28:04;;;;;;;3.88;1.75;;;28.40;53.80;;;;;;5121878;27;20051;-85
2023/07/20 12:30:30;;;;;;;3.72;1.55;;;29.10;53.40;;;;;;5139681;27;20408;-84
2023/07/20 12:32:55;;;;;;;4.93;1.75;;;28.90;53.10;;;;;;5104120;28;20043;-84
2023/07/20 12:35:21;;;;;;;3.67;1.50;;;28.80;54.70;;;;;;5114553;28;20175;-84
2023/07/20 12:37:48;;;;;;;3.95;1.63;;;29.30;53.50;;;;;;5095399;28;20020;-85
2023/07/20 12:40:14;;;;;;;4.57;1.60;;;28.50;53.00;;;;;;5118706;28;20023;-86
2023/07/20 12:42:40;;;;;;;4.25;1.80;;;28.30;53.10;;;;;;5118668;28;20028;-85
2023/07/20 12:45:06;;;;;;;5.47;1.70;;;26.90;54.90;;;;;;5118330;28;20108;-85
2023/07/20 12:47:31;;;;;;;4.93;1.70;;;26.70;56.30;;;;;;5110659;28;20506;-84
2023/07/20 12:49:57;;;;;;;4.13;1.75;;;27.70;54.70;;;;;;5117955;28;20114;-84
2023/07/20 12:52:25;;;;;;;3.95;1.70;;;28.30;54.90;;;;;;5117579;28;20031;-85